KHVN

Tweed-New Haven Airport

New Haven, Connecticut, USA
METAR KHVN 240153Z 00000KT 10SM CLR 18/12 A2997 RMK AO2 SLP147 T01780117
Observed Flight Rules
May-24 @ 01:53 UTC (27 minutes ago) Visual Flight Rules
Visibility Clouds
10 miles
  • Clear skies
Temperatures Readings
Current 18°C / 64°F
Dewpoint 12°C / 54°F
Humidity 68%
Altimeter 29.97" Hg
Pressure 1014.7 hPa
Elevation 4
METAR KHVN 240153Z 00000KT 10SM CLR 18/12 A2997 RMK AO2 SLP147 T01780117
Observed Flight Rules
May-24 @ 01:53 UTC
(27 minutes ago)
VFR
Clouds
  • Clear skies
Temperature Dewpoint
18°C / 64°F 12°C / 54°F
Humidity Altimeter Pressure
68% 29.97" Hg 1014.7 hPa